sensor_id;sensor_type;location;lat;lon;timestamp;pressure;altitude;pressure_sealevel;temperature;humidity
3812;BME280;1921;49.368;11.068;2023-04-28T00:01:28;97645.28;;;9.75;67.69
3812;BME280;1921;49.368;11.068;2023-04-28T00:03:53;97639.03;;;9.61;67.92
3812;BME280;1921;49.368;11.068;2023-04-28T00:06:21;97618.97;;;9.38;68.55
3812;BME280;1921;49.368;11.068;2023-04-28T00:08:46;97643.78;;;9.49;69.12
3812;BME280;1921;49.368;11.068;2023-04-28T00:11:12;97685.47;;;9.80;69.67
3812;BME280;1921;49.368;11.068;2023-04-28T00:13:38;97663.31;;;9.53;71.14
3812;BME280;1921;49.368;11.068;2023-04-28T00:16:04;97674.22;;;9.57;70.79
3812;BME280;1921;49.368;11.068;2023-04-28T00:18:30;97616.88;;;9.34;69.90
3812;BME280;1921;49.368;11.068;2023-04-28T00:20:58;97587.59;;;9.32;69.24
3812;BME280;1921;49.368;11.068;2023-04-28T00:23:24;97617.63;;;9.42;68.88
3812;BME280;1921;49.368;11.068;2023-04-28T00:25:54;97590.66;;;9.35;68.89
3812;BME280;1921;49.368;11.068;2023-04-28T00:28:20;97593.25;;;9.35;68.33
3812;BME280;1921;49.368;11.068;2023-04-28T00:30:46;97611.44;;;9.43;67.92
3812;BME280;1921;49.368;11.068;2023-04-28T00:33:12;97596.03;;;9.34;68.08
3812;BME280;1921;49.368;11.068;2023-04-28T00:35:39;97610.50;;;9.36;68.45
3812;BME280;1921;49.368;11.068;2023-04-28T00:38:06;97655.31;;;9.55;68.56
3812;BME280;1921;49.368;11.068;2023-04-28T00:40:36;97634.03;;;9.51;67.73
3812;BME280;1921;49.368;11.068;2023-04-28T00:43:03;97648.06;;;9.73;66.81
3812;BME280;1921;49.368;11.068;2023-04-28T00:45:30;97601.38;;;9.71;66.68
3812;BME280;1921;49.368;11.068;2023-04-28T00:47:56;97600.44;;;9.87;65.56
3812;BME280;1921;49.368;11.068;2023-04-28T00:50:23;97645.06;;;10.15;65.50
3812;BME280;1921;49.368;11.068;2023-04-28T00:52:51;97615.91;;;10.12;64.87
3812;BME280;1921;49.368;11.068;2023-04-28T00:55:17;97598.56;;;10.04;64.77
3812;BME280;1921;49.368;11.068;2023-04-28T00:57:43;97633.09;;;10.29;64.67
3812;BME280;1921;49.368;11.068;2023-04-28T01:00:10;97603.47;;;10.22;64.09
3812;BME280;1921;49.368;11.068;2023-04-28T01:02:36;97604.13;;;10.24;63.77
3812;BME280;1921;49.368;11.068;2023-04-28T01:05:02;97574.78;;;10.07;63.66
3812;BME280;1921;49.368;11.068;2023-04-28T01:07:28;97570.81;;;10.11;63.90
3812;BME280;1921;49.368;11.068;2023-04-28T01:09:54;97562.38;;;10.09;63.53
3812;BME280;1921;49.368;11.068;2023-04-28T01:12:21;97619.41;;;10.50;63.22
3812;BME280;1921;49.368;11.068;2023-04-28T01:14:48;97541.81;;;10.14;63.41
3812;BME280;1921;49.368;11.068;2023-04-28T01:17:14;97596.41;;;10.54;62.83
3812;BME280;1921;49.368;11.068;2023-04-28T01:19:40;97543.06;;;10.18;63.50
3812;BME280;1921;49.368;11.068;2023-04-28T01:22:06;97596.06;;;10.57;63.65
3812;BME280;1921;49.368;11.068;2023-04-28T01:24:32;97538.97;;;10.24;63.37
3812;BME280;1921;49.368;11.068;2023-04-28T01:26:57;97600.56;;;10.63;63.43
3812;BME280;1921;49.368;11.068;2023-04-28T01:29:23;97589.19;;;10.56;63.75
3812;BME280;1921;49.368;11.068;2023-04-28T01:31:49;97541.59;;;10.24;63.81
3812;BME280;1921;49.368;11.068;2023-04-28T01:34:15;97563.47;;;10.38;64.36
3812;BME280;1921;49.368;11.068;2023-04-28T01:36:40;97595.25;;;10.71;64.09
3812;BME280;1921;49.368;11.068;2023-04-28T01:39:06;97561.88;;;10.51;63.75
3812;BME280;1921;49.368;11.068;2023-04-28T01:41:32;97529.31;;;10.33;64.55
3812;BME280;1921;49.368;11.068;2023-04-28T01:44:01;97530.75;;;10.35;63.54
3812;BME280;1921;49.368;11.068;2023-04-28T01:46:26;97492.31;;;10.14;64.35
3812;BME280;1921;49.368;11.068;2023-04-28T01:48:52;97571.97;;;10.69;64.17
3812;BME280;1921;49.368;11.068;2023-04-28T01:51:18;97534.44;;;10.56;64.23
3812;BME280;1921;49.368;11.068;2023-04-28T01:53:44;97508.81;;;10.44;64.41
3812;BME280;1921;49.368;11.068;2023-04-28T01:56:10;97540.75;;;10.61;64.54
3812;BME280;1921;49.368;11.068;2023-04-28T01:58:36;97568.81;;;10.74;65.23
3812;BME280;1921;49.368;11.068;2023-04-28T02:01:01;97564.78;;;10.71;64.82
3812;BME280;1921;49.368;11.068;2023-04-28T02:03:27;97532.91;;;10.61;64.68
3812;BME280;1921;49.368;11.068;2023-04-28T02:05:53;97518.28;;;10.45;64.76
3812;BME280;1921;49.368;11.068;2023-04-28T02:08:19;97566.75;;;10.69;65.37
3812;BME280;1921;49.368;11.068;2023-04-28T02:10:45;97570.59;;;10.73;65.26
3812;BME280;1921;49.368;11.068;2023-04-28T02:13:11;97579.44;;;10.72;65.16
3812;BME280;1921;49.368;11.068;2023-04-28T02:15:41;97494.03;;;10.22;65.49
3812;BME280;1921;49.368;11.068;2023-04-28T02:18:08;97548.66;;;10.53;66.07
3812;BME280;1921;49.368;11.068;2023-04-28T02:20:33;97574.84;;;10.74;65.52
3812;BME280;1921;49.368;11.068;2023-04-28T02:22:59;97583.22;;;10.85;65.89
3812;BME280;1921;49.368;11.068;2023-04-28T02:25:25;97568.00;;;10.73;66.06
3812;BME280;1921;49.368;11.068;2023-04-28T02:27:51;97509.91;;;10.50;65.83
3812;BME280;1921;49.368;11.068;2023-04-28T02:30:17;97509.28;;;10.63;66.08
3812;BME280;1921;49.368;11.068;2023-04-28T02:32:42;97524.56;;;10.81;65.28
3812;BME280;1921;49.368;11.068;2023-04-28T02:35:08;97540.66;;;10.99;65.10
3812;BME280;1921;49.368;11.068;2023-04-28T02:37:34;97530.59;;;10.96;65.59
3812;BME280;1921;49.368;11.068;2023-04-28T02:40:00;97518.81;;;10.85;65.69
3812;BME280;1921;49.368;11.068;2023-04-28T02:42:26;97523.75;;;10.95;65.50
3812;BME280;1921;49.368;11.068;2023-04-28T02:44:52;97512.59;;;10.86;65.48
3812;BME280;1921;49.368;11.068;2023-04-28T02:47:18;97496.84;;;10.79;65.66
3812;BME280;1921;49.368;11.068;2023-04-28T02:49:43;97498.31;;;10.82;65.89
3812;BME280;1921;49.368;11.068;2023-04-28T02:52:09;97551.09;;;11.14;65.64
3812;BME280;1921;49.368;11.068;2023-04-28T02:54:35;97526.53;;;11.08;65.93
3812;BME280;1921;49.368;11.068;2023-04-28T02:57:02;97509.63;;;10.89;66.11
3812;BME280;1921;49.368;11.068;2023-04-28T02:59:29;97524.25;;;11.05;65.95
3812;BME280;1921;49.368;11.068;2023-04-28T03:01:55;97514.75;;;11.12;65.67
3812;BME280;1921;49.368;11.068;2023-04-28T03:04:21;97478.75;;;10.93;65.70
3812;BME280;1921;49.368;11.068;2023-04-28T03:06:47;97490.25;;;10.98;66.04
3812;BME280;1921;49.368;11.068;2023-04-28T03:09:14;97482.09;;;11.01;65.29
3812;BME280;1921;49.368;11.068;2023-04-28T03:11:40;97474.94;;;11.10;65.67
3812;BME280;1921;49.368;11.068;2023-04-28T03:14:06;97475.59;;;11.12;65.22
3812;BME280;1921;49.368;11.068;2023-04-28T03:16:32;97461.94;;;10.95;65.30
3812;BME280;1921;49.368;11.068;2023-04-28T03:18:58;97461.81;;;11.03;65.90
3812;BME280;1921;49.368;11.068;2023-04-28T03:21:23;97465.31;;;11.11;65.39
3812;BME280;1921;49.368;11.068;2023-04-28T03:23:52;97459.88;;;11.05;65.95
3812;BME280;1921;49.368;11.068;2023-04-28T03:26:18;97500.03;;;11.26;66.51
3812;BME280;1921;49.368;11.068;2023-04-28T03:28:44;97454.13;;;10.95;66.12
3812;BME280;1921;49.368;11.068;2023-04-28T03:31:10;97467.13;;;11.10;65.86
3812;BME280;1921;49.368;11.068;2023-04-28T03:33:36;97438.53;;;11.02;66.46
3812;BME280;1921;49.368;11.068;2023-04-28T03:36:02;97442.41;;;11.06;66.35
3812;BME280;1921;49.368;11.068;2023-04-28T03:38:27;97432.69;;;11.00;66.30
3812;BME280;1921;49.368;11.068;2023-04-28T03:40:53;97407.16;;;10.95;65.79
3812;BME280;1921;49.368;11.068;2023-04-28T03:43:19;97417.84;;;11.00;65.60
3812;BME280;1921;49.368;11.068;2023-04-28T03:45:45;97440.47;;;11.15;65.88
3812;BME280;1921;49.368;11.068;2023-04-28T03:48:11;97461.94;;;11.31;65.91
3812;BME280;1921;49.368;11.068;2023-04-28T03:50:37;97439.06;;;11.12;65.46
3812;BME280;1921;49.368;11.068;2023-04-28T03:53:04;97431.78;;;10.93;66.18
3812;BME280;1921;49.368;11.068;2023-04-28T03:55:30;97422.63;;;10.97;66.14
3812;BME280;1921;49.368;11.068;2023-04-28T03:57:55;97478.66;;;11.37;65.71
3812;BME280;1921;49.368;11.068;2023-04-28T04:00:21;97468.03;;;11.39;66.02
3812;BME280;1921;49.368;11.068;2023-04-28T04:02:47;97456.00;;;11.23;65.47
3812;BME280;1921;49.368;11.068;2023-04-28T04:05:13;97459.41;;;11.38;65.44
3812;BME280;1921;49.368;11.068;2023-04-28T04:07:38;97429.56;;;11.26;65.50
3812;BME280;1921;49.368;11.068;2023-04-28T04:10:05;97425.25;;;11.40;64.96
3812;BME280;1921;49.368;11.068;2023-04-28T04:12:31;97448.06;;;11.52;64.42
3812;BME280;1921;49.368;11.068;2023-04-28T04:14:57;97465.28;;;11.47;65.04
3812;BME280;1921;49.368;11.068;2023-04-28T04:17:22;97442.06;;;11.30;65.36
3812;BME280;1921;49.368;11.068;2023-04-28T04:19:48;97389.41;;;11.05;65.47
3812;BME280;1921;49.368;11.068;2023-04-28T04:22:14;97395.66;;;11.11;65.55
3812;BME280;1921;49.368;11.068;2023-04-28T04:24:39;97417.31;;;11.26;65.22
3812;BME280;1921;49.368;11.068;2023-04-28T04:27:05;97404.53;;;11.17;64.91
3812;BME280;1921;49.368;11.068;2023-04-28T04:29:31;97405.41;;;11.24;64.92
3812;BME280;1921;49.368;11.068;2023-04-28T04:31:57;97432.16;;;11.26;65.58
3812;BME280;1921;49.368;11.068;2023-04-28T04:34:22;97455.25;;;11.44;65.73
3812;BME280;1921;49.368;11.068;2023-04-28T04:36:48;97446.41;;;11.45;66.05
3812;BME280;1921;49.368;11.068;2023-04-28T04:39:14;97385.53;;;11.23;65.46
3812;BME280;1921;49.368;11.068;2023-04-28T04:41:40;97413.47;;;11.44;65.51
3812;BME280;1921;49.368;11.068;2023-04-28T04:44:06;97417.47;;;11.46;65.32
3812;BME280;1921;49.368;11.068;2023-04-28T04:46:32;97444.97;;;11.64;65.82
3812;BME280;1921;49.368;11.068;2023-04-28T04:48:58;97405.38;;;11.39;65.21
3812;BME280;1921;49.368;11.068;2023-04-28T04:51:23;97417.94;;;11.50;65.65
3812;BME280;1921;49.368;11.068;2023-04-28T04:53:49;97428.84;;;11.60;65.01
3812;BME280;1921;49.368;11.068;2023-04-28T04:56:15;97418.34;;;11.53;65.45
3812;BME280;1921;49.368;11.068;2023-04-28T04:58:42;97459.03;;;11.84;64.61
3812;BME280;1921;49.368;11.068;2023-04-28T05:01:09;97415.63;;;11.62;64.42
3812;BME280;1921;49.368;11.068;2023-04-28T05:03:34;97452.03;;;11.91;64.21
3812;BME280;1921;49.368;11.068;2023-04-28T05:06:01;97425.94;;;11.70;63.53
3812;BME280;1921;49.368;11.068;2023-04-28T05:08:28;97424.31;;;11.69;63.96
3812;BME280;1921;49.368;11.068;2023-04-28T05:10:54;97479.16;;;12.11;64.00
3812;BME280;1921;49.368;11.068;2023-04-28T05:13:19;97419.75;;;11.77;63.88
3812;BME280;1921;49.368;11.068;2023-04-28T05:15:45;97442.88;;;12.02;63.76
3812;BME280;1921;49.368;11.068;2023-04-28T05:18:11;97419.50;;;11.94;63.66
3812;BME280;1921;49.368;11.068;2023-04-28T05:20:38;97425.41;;;12.02;62.87
3812;BME280;1921;49.368;11.068;2023-04-28T05:23:05;97389.78;;;11.95;62.42
3812;BME280;1921;49.368;11.068;2023-04-28T05:25:31;97477.72;;;12.37;62.94
3812;BME280;1921;49.368;11.068;2023-04-28T05:27:57;97407.53;;;12.06;62.69
3812;BME280;1921;49.368;11.068;2023-04-28T05:30:22;97452.38;;;12.37;63.07
3812;BME280;1921;49.368;11.068;2023-04-28T05:32:48;97450.91;;;12.28;63.98
3812;BME280;1921;49.368;11.068;2023-04-28T05:35:14;97415.34;;;11.99;63.60
3812;BME280;1921;49.368;11.068;2023-04-28T05:37:40;97427.69;;;12.12;63.77
3812;BME280;1921;49.368;11.068;2023-04-28T05:40:08;97489.84;;;12.45;64.00
3812;BME280;1921;49.368;11.068;2023-04-28T05:42:34;97416.44;;;12.11;64.66
3812;BME280;1921;49.368;11.068;2023-04-28T05:45:00;97439.03;;;12.26;64.81
3812;BME280;1921;49.368;11.068;2023-04-28T05:47:27;97420.22;;;12.09;65.79
3812;BME280;1921;49.368;11.068;2023-04-28T05:49:53;97458.78;;;12.35;65.98
3812;BME280;1921;49.368;11.068;2023-04-28T05:52:20;97461.25;;;12.43;66.27
3812;BME280;1921;49.368;11.068;2023-04-28T05:54:45;97478.56;;;12.44;67.05
3812;BME280;1921;49.368;11.068;2023-04-28T05:57:11;97439.00;;;12.19;68.63
3812;BME280;1921;49.368;11.068;2023-04-28T05:59:37;97461.56;;;12.27;68.88
3812;BME280;1921;49.368;11.068;2023-04-28T06:02:03;97415.84;;;11.88;70.04
3812;BME280;1921;49.368;11.068;2023-04-28T06:04:28;97393.13;;;11.67;70.90
3812;BME280;1921;49.368;11.068;2023-04-28T06:06:54;97391.63;;;11.51;71.22
3812;BME280;1921;49.368;11.068;2023-04-28T06:09:20;97431.00;;;11.78;71.22
3812;BME280;1921;49.368;11.068;2023-04-28T06:11:46;97383.03;;;11.57;71.99
3812;BME280;1921;49.368;11.068;2023-04-28T06:14:12;97437.38;;;11.90;73.37
3812;BME280;1921;49.368;11.068;2023-04-28T06:16:38;97431.41;;;11.75;75.05
3812;BME280;1921;49.368;11.068;2023-04-28T06:19:04;97451.19;;;11.63;76.70
3812;BME280;1921;49.368;11.068;2023-04-28T06:21:30;97443.97;;;11.65;78.64
3812;BME280;1921;49.368;11.068;2023-04-28T06:23:56;97473.91;;;11.83;78.44
3812;BME280;1921;49.368;11.068;2023-04-28T06:26:23;97459.69;;;11.71;80.22
3812;BME280;1921;49.368;11.068;2023-04-28T06:28:48;97468.59;;;11.77;81.32
3812;BME280;1921;49.368;11.068;2023-04-28T06:31:15;97466.13;;;11.69;81.91
3812;BME280;1921;49.368;11.068;2023-04-28T06:33:41;97399.22;;;11.25;81.71
3812;BME280;1921;49.368;11.068;2023-04-28T06:36:07;97464.34;;;11.54;83.77
3812;BME280;1921;49.368;11.068;2023-04-28T06:38:33;97386.59;;;11.07;83.42
3812;BME280;1921;49.368;11.068;2023-04-28T06:41:00;97405.19;;;11.19;82.99
3812;BME280;1921;49.368;11.068;2023-04-28T06:43:25;97441.97;;;11.24;84.67
3812;BME280;1921;49.368;11.068;2023-04-28T06:45:51;97434.13;;;11.24;84.58
3812;BME280;1921;49.368;11.068;2023-04-28T06:48:17;97436.25;;;11.35;84.35
3812;BME280;1921;49.368;11.068;2023-04-28T06:50:45;97402.69;;;11.11;84.33
3812;BME280;1921;49.368;11.068;2023-04-28T06:53:14;97423.56;;;11.11;83.99
3812;BME280;1921;49.368;11.068;2023-04-28T06:55:40;97394.63;;;11.05;84.60
3812;BME280;1921;49.368;11.068;2023-04-28T06:58:07;97451.88;;;11.50;83.85
3812;BME280;1921;49.368;11.068;2023-04-28T07:00:33;97361.19;;;10.94;84.51
3812;BME280;1921;49.368;11.068;2023-04-28T07:03:00;97448.63;;;11.48;84.58
3812;BME280;1921;49.368;11.068;2023-04-28T07:05:26;97398.19;;;11.04;85.73
3812;BME280;1921;49.368;11.068;2023-04-28T07:07:53;97392.88;;;11.13;86.15
3812;BME280;1921;49.368;11.068;2023-04-28T07:10:19;97452.59;;;11.22;87.17
3812;BME280;1921;49.368;11.068;2023-04-28T07:12:45;97400.75;;;10.98;87.32
3812;BME280;1921;49.368;11.068;2023-04-28T07:15:11;97405.88;;;11.06;87.57
3812;BME280;1921;49.368;11.068;2023-04-28T07:17:37;97419.06;;;11.04;87.99
3812;BME280;1921;49.368;11.068;2023-04-28T07:20:04;97439.28;;;11.17;88.66
3812;BME280;1921;49.368;11.068;2023-04-28T07:22:30;97445.97;;;11.20;89.51
3812;BME280;1921;49.368;11.068;2023-04-28T07:24:56;97431.56;;;11.09;89.33
3812;BME280;1921;49.368;11.068;2023-04-28T07:27:22;97418.72;;;11.08;90.37
3812;BME280;1921;49.368;11.068;2023-04-28T07:29:48;97415.97;;;11.16;91.02
3812;BME280;1921;49.368;11.068;2023-04-28T07:32:14;97421.22;;;11.16;91.75
3812;BME280;1921;49.368;11.068;2023-04-28T07:34:40;97425.41;;;11.31;93.21
3812;BME280;1921;49.368;11.068;2023-04-28T07:37:06;97432.78;;;11.49;92.46
3812;BME280;1921;49.368;11.068;2023-04-28T07:39:33;97365.41;;;11.17;90.67
3812;BME280;1921;49.368;11.068;2023-04-28T07:42:00;97339.25;;;10.89;91.22
3812;BME280;1921;49.368;11.068;2023-04-28T07:44:28;97428.13;;;11.45;90.26
3812;BME280;1921;49.368;11.068;2023-04-28T07:46:55;97468.63;;;11.19;92.81
3812;BME280;1921;49.368;11.068;2023-04-28T07:49:21;97461.34;;;11.15;93.29
3812;BME280;1921;49.368;11.068;2023-04-28T07:51:46;97427.28;;;11.01;92.98
3812;BME280;1921;49.368;11.068;2023-04-28T07:54:15;97397.41;;;10.68;94.77
3812;BME280;1921;49.368;11.068;2023-04-28T07:56:41;97394.69;;;10.76;94.54
3812;BME280;1921;49.368;11.068;2023-04-28T07:59:08;97358.31;;;10.53;94.32
3812;BME280;1921;49.368;11.068;2023-04-28T08:01:34;97437.91;;;11.00;94.86
3812;BME280;1921;49.368;11.068;2023-04-28T08:04:00;97360.66;;;10.63;95.14
3812;BME280;1921;49.368;11.068;2023-04-28T08:06:26;97463.09;;;11.29;95.21
3812;BME280;1921;49.368;11.068;2023-04-28T08:08:51;97465.97;;;11.34;95.92
3812;BME280;1921;49.368;11.068;2023-04-28T08:11:17;97470.94;;;11.29;96.60
3812;BME280;1921;49.368;11.068;2023-04-28T08:13:43;97427.16;;;11.10;95.79
3812;BME280;1921;49.368;11.068;2023-04-28T08:16:08;97443.47;;;11.33;96.19
3812;BME280;1921;49.368;11.068;2023-04-28T08:18:34;97435.16;;;11.44;96.04
3812;BME280;1921;49.368;11.068;2023-04-28T08:21:00;97437.06;;;11.57;96.22
3812;BME280;1921;49.368;11.068;2023-04-28T08:23:26;97445.03;;;11.70;96.33
3812;BME280;1921;49.368;11.068;2023-04-28T08:25:53;97438.19;;;11.69;96.77
3812;BME280;1921;49.368;11.068;2023-04-28T08:28:20;97408.13;;;11.30;97.82
3812;BME280;1921;49.368;11.068;2023-04-28T08:30:46;97421.47;;;11.42;98.47
3812;BME280;1921;49.368;11.068;2023-04-28T08:33:11;97319.75;;;10.85;98.39
3812;BME280;1921;49.368;11.068;2023-04-28T08:35:37;97418.28;;;11.47;98.65
3812;BME280;1921;49.368;11.068;2023-04-28T08:38:03;97343.97;;;11.00;98.88
3812;BME280;1921;49.368;11.068;2023-04-28T08:40:30;97367.41;;;11.15;99.21
3812;BME280;1921;49.368;11.068;2023-04-28T08:42:56;97398.59;;;11.44;99.65
3812;BME280;1921;49.368;11.068;2023-04-28T08:45:23;97401.13;;;11.16;100.00
3812;BME280;1921;49.368;11.068;2023-04-28T08:47:50;97421.06;;;11.24;100.00
3812;BME280;1921;49.368;11.068;2023-04-28T08:50:21;97283.28;;;10.70;100.00
3812;BME280;1921;49.368;11.068;2023-04-28T08:52:48;97366.91;;;11.54;99.39
3812;BME280;1921;49.368;11.068;2023-04-28T08:55:17;97330.72;;;11.23;99.73
3812;BME280;1921;49.368;11.068;2023-04-28T08:57:47;97404.88;;;11.78;99.77
3812;BME280;1921;49.368;11.068;2023-04-28T09:00:14;97375.06;;;11.66;99.28
3812;BME280;1921;49.368;11.068;2023-04-28T09:02:40;97366.91;;;11.54;98.67
3812;BME280;1921;49.368;11.068;2023-04-28T09:05:08;97406.16;;;11.82;99.14
3812;BME280;1921;49.368;11.068;2023-04-28T09:07:34;97401.63;;;11.69;100.00
3812;BME280;1921;49.368;11.068;2023-04-28T09:10:22;97400.00;;;11.68;100.00
3812;BME280;1921;49.368;11.068;2023-04-28T09:12:54;97391.38;;;11.68;100.00
3812;BME280;1921;49.368;11.068;2023-04-28T09:15:34;97402.34;;;11.84;100.00
3812;BME280;1921;49.368;11.068;2023-04-28T09:18:05;97378.75;;;11.78;100.00
3812;BME280;1921;49.368;11.068;2023-04-28T09:20:34;97357.13;;;11.84;100.00
3812;BME280;1921;49.368;11.068;2023-04-28T09:23:18;97390.38;;;11.97;100.00
3812;BME280;1921;49.368;11.068;2023-04-28T09:26:14;97361.97;;;11.87;100.00
3812;BME280;1921;49.368;11.068;2023-04-28T09:28:40;97368.06;;;11.94;100.00
3812;BME280;1921;49.368;11.068;2023-04-28T09:31:24;97375.41;;;12.12;100.00
3812;BME280;1921;49.368;11.068;2023-04-28T09:33:59;97379.50;;;11.93;100.00
3812;BME280;1921;49.368;11.068;2023-04-28T09:36:29;97325.34;;;11.52;100.00
3812;BME280;1921;49.368;11.068;2023-04-28T09:38:59;97374.41;;;11.85;100.00
3812;BME280;1921;49.368;11.068;2023-04-28T09:41:40;97395.34;;;11.92;100.00
3812;BME280;1921;49.368;11.068;2023-04-28T09:44:18;97347.09;;;11.59;100.00
3812;BME280;1921;49.368;11.068;2023-04-28T09:46:46;97383.56;;;11.74;100.00
3812;BME280;1921;49.368;11.068;2023-04-28T09:49:12;97386.88;;;11.83;100.00
3812;BME280;1921;49.368;11.068;2023-04-28T09:51:39;97415.59;;;11.83;100.00
3812;BME280;1921;49.368;11.068;2023-04-28T09:54:06;97387.34;;;11.93;100.00
3812;BME280;1921;49.368;11.068;2023-04-28T09:56:34;97369.91;;;12.00;100.00
3812;BME280;1921;49.368;11.068;2023-04-28T09:59:02;97380.72;;;12.32;100.00
3812;BME280;1921;49.368;11.068;2023-04-28T10:01:39;97363.78;;;12.21;100.00
3812;BME280;1921;49.368;11.068;2023-04-28T10:04:07;97369.38;;;12.59;100.00
3812;BME280;1921;49.368;11.068;2023-04-28T10:06:34;97391.63;;;12.90;100.00
3812;BME280;1921;49.368;11.068;2023-04-28T10:09:01;97401.44;;;12.75;100.00
3812;BME280;1921;49.368;11.068;2023-04-28T10:11:27;97315.22;;;12.53;100.00
3812;BME280;1921;49.368;11.068;2023-04-28T10:13:55;97367.09;;;13.04;100.00
3812;BME280;1921;49.368;11.068;2023-04-28T10:16:22;97372.56;;;13.23;100.00
3812;BME280;1921;49.368;11.068;2023-04-28T10:18:49;97355.63;;;13.12;100.00
3812;BME280;1921;49.368;11.068;2023-04-28T10:21:18;97371.56;;;13.17;100.00
3812;BME280;1921;49.368;11.068;2023-04-28T10:24:14;97341.31;;;13.14;100.00
3812;BME280;1921;49.368;11.068;2023-04-28T10:27:05;97358.09;;;13.40;99.83
3812;BME280;1921;49.368;11.068;2023-04-28T10:29:33;97232.97;;;12.69;100.00
3812;BME280;1921;49.368;11.068;2023-04-28T10:32:18;97321.84;;;13.30;98.46
3812;BME280;1921;49.368;11.068;2023-04-28T10:34:44;97332.06;;;13.05;100.00
3812;BME280;1921;49.368;11.068;2023-04-28T10:37:10;97321.59;;;13.18;100.00
3812;BME280;1921;49.368;11.068;2023-04-28T10:39:36;97321.84;;;13.43;99.67
3812;BME280;1921;49.368;11.068;2023-04-28T10:42:02;97293.97;;;13.03;100.00
3812;BME280;1921;49.368;11.068;2023-04-28T10:47:07;97315.19;;;13.21;100.00
3812;BME280;1921;49.368;11.068;2023-04-28T10:55:33;97346.72;;;14.12;100.00
3812;BME280;1921;49.368;11.068;2023-04-28T11:00:46;97319.03;;;14.30;99.27
3812;BME280;1921;49.368;11.068;2023-04-28T11:06:35;97321.09;;;14.72;96.33
3812;BME280;1921;49.368;11.068;2023-04-28T11:14:32;97307.22;;;14.97;96.61
3812;BME280;1921;49.368;11.068;2023-04-28T11:17:07;97314.03;;;15.04;95.81
3812;BME280;1921;49.368;11.068;2023-04-28T11:19:39;97341.94;;;15.30;92.97
3812;BME280;1921;49.368;11.068;2023-04-28T11:22:21;97322.63;;;15.18;94.02
3812;BME280;1921;49.368;11.068;2023-04-28T11:25:00;97317.78;;;15.40;93.37
3812;BME280;1921;49.368;11.068;2023-04-28T11:27:29;97279.84;;;15.36;92.89
3812;BME280;1921;49.368;11.068;2023-04-28T11:29:55;97323.97;;;15.96;92.73
3812;BME280;1921;49.368;11.068;2023-04-28T11:32:34;97340.72;;;16.01;90.38
3812;BME280;1921;49.368;11.068;2023-04-28T11:35:01;97305.00;;;16.12;91.00
3812;BME280;1921;49.368;11.068;2023-04-28T11:37:29;97339.59;;;16.46;88.15
3812;BME280;1921;49.368;11.068;2023-04-28T11:39:54;97315.00;;;16.40;88.09
3812;BME280;1921;49.368;11.068;2023-04-28T11:42:21;97338.72;;;16.70;87.22
3812;BME280;1921;49.368;11.068;2023-04-28T11:44:51;97331.91;;;16.81;85.48
3812;BME280;1921;49.368;11.068;2023-04-28T11:47:31;97351.09;;;17.00;85.28
3812;BME280;1921;49.368;11.068;2023-04-28T11:49:57;97306.38;;;16.81;85.26
3812;BME280;1921;49.368;11.068;2023-04-28T11:52:23;97337.47;;;17.03;84.08
3812;BME280;1921;49.368;11.068;2023-04-28T11:54:58;97331.94;;;16.92;85.75
3812;BME280;1921;49.368;11.068;2023-04-28T11:57:26;97325.88;;;16.92;86.03
3812;BME280;1921;49.368;11.068;2023-04-28T11:59:52;97299.03;;;16.72;85.25
3812;BME280;1921;49.368;11.068;2023-04-28T12:02:26;97295.97;;;16.86;86.26
3812;BME280;1921;49.368;11.068;2023-04-28T12:04:53;97352.13;;;17.40;86.09
3812;BME280;1921;49.368;11.068;2023-04-28T12:07:20;97326.44;;;17.36;85.33
3812;BME280;1921;49.368;11.068;2023-04-28T12:10:09;97303.25;;;17.26;85.21
3812;BME280;1921;49.368;11.068;2023-04-28T12:12:35;97287.69;;;17.25;84.77
3812;BME280;1921;49.368;11.068;2023-04-28T12:15:03;97300.88;;;17.36;84.59
3812;BME280;1921;49.368;11.068;2023-04-28T12:17:40;97240.91;;;16.97;85.05
3812;BME280;1921;49.368;11.068;2023-04-28T12:20:09;97285.34;;;17.05;84.75
3812;BME280;1921;49.368;11.068;2023-04-28T12:22:47;97340.34;;;17.66;85.16
3812;BME280;1921;49.368;11.068;2023-04-28T12:25:16;97305.38;;;17.71;84.98
3812;BME280;1921;49.368;11.068;2023-04-28T12:30:30;97317.19;;;18.44;80.89
3812;BME280;1921;49.368;11.068;2023-04-28T12:32:56;97311.75;;;18.91;78.80
3812;BME280;1921;49.368;11.068;2023-04-28T12:35:24;97298.78;;;18.89;76.93
3812;BME280;1921;49.368;11.068;2023-04-28T12:37:51;97309.56;;;19.33;78.42
3812;BME280;1921;49.368;11.068;2023-04-28T12:40:17;97303.16;;;19.46;75.55
3812;BME280;1921;49.368;11.068;2023-04-28T12:42:43;97311.16;;;19.68;76.15
3812;BME280;1921;49.368;11.068;2023-04-28T12:45:09;97338.88;;;19.99;73.52
3812;BME280;1921;49.368;11.068;2023-04-28T12:47:36;97318.94;;;19.74;72.69
3812;BME280;1921;49.368;11.068;2023-04-28T12:50:04;97301.56;;;19.61;73.31
3812;BME280;1921;49.368;11.068;2023-04-28T12:52:30;97301.00;;;19.59;73.74
3812;BME280;1921;49.368;11.068;2023-04-28T12:54:58;97311.16;;;19.68;74.95
3812;BME280;1921;49.368;11.068;2023-04-28T12:57:24;97292.66;;;19.34;71.57
3812;BME280;1921;49.368;11.068;2023-04-28T12:59:51;97297.53;;;19.08;73.98
3812;BME280;1921;49.368;11.068;2023-04-28T13:02:17;97304.09;;;18.89;75.46
3812;BME280;1921;49.368;11.068;2023-04-28T13:04:43;97335.41;;;18.69;76.33
3812;BME280;1921;49.368;11.068;2023-04-28T13:07:13;97318.38;;;18.36;77.80
3812;BME280;1921;49.368;11.068;2023-04-28T13:09:39;97309.34;;;18.20;79.01
3812;BME280;1921;49.368;11.068;2023-04-28T13:12:07;97296.38;;;18.07;79.54
3812;BME280;1921;49.368;11.068;2023-04-28T13:14:34;97265.91;;;17.76;80.18
3812;BME280;1921;49.368;11.068;2023-04-28T13:17:00;97269.16;;;17.78;81.29
3812;BME280;1921;49.368;11.068;2023-04-28T13:19:27;97295.63;;;17.60;81.96
3812;BME280;1921;49.368;11.068;2023-04-28T13:21:54;97303.41;;;17.55;82.88
3812;BME280;1921;49.368;11.068;2023-04-28T13:24:20;97284.38;;;17.29;83.46
3812;BME280;1921;49.368;11.068;2023-04-28T13:26:46;97165.19;;;16.38;83.64
3812;BME280;1921;49.368;11.068;2023-04-28T13:29:11;97276.75;;;16.98;84.69
3812;BME280;1921;49.368;11.068;2023-04-28T13:31:39;97310.44;;;16.95;86.46
3812;BME280;1921;49.368;11.068;2023-04-28T13:34:05;97295.81;;;17.23;88.19